sensor_id;sensor_type;location;lat;lon;timestamp;P1;durP1;ratioP1;P2;durP2;ratioP2
20348;SDS011;10332;50.208;18.988;2023-06-24T00:02:28;2.40;;;2.15;;
20348;SDS011;10332;50.208;18.988;2023-06-24T00:04:56;2.67;;;2.10;;
20348;SDS011;10332;50.208;18.988;2023-06-24T00:07:27;1.65;;;1.55;;
20348;SDS011;10332;50.208;18.988;2023-06-24T00:09:54;2.33;;;1.67;;
20348;SDS011;10332;50.208;18.988;2023-06-24T00:12:22;2.55;;;1.90;;
20348;SDS011;10332;50.208;18.988;2023-06-24T00:14:49;2.08;;;1.85;;
20348;SDS011;10332;50.208;18.988;2023-06-24T00:17:17;4.05;;;1.90;;
20348;SDS011;10332;50.208;18.988;2023-06-24T00:19:44;2.00;;;1.80;;
20348;SDS011;10332;50.208;18.988;2023-06-24T00:22:12;2.13;;;1.92;;
20348;SDS011;10332;50.208;18.988;2023-06-24T00:24:41;3.63;;;2.00;;
20348;SDS011;10332;50.208;18.988;2023-06-24T00:27:10;1.58;;;1.48;;
20348;SDS011;10332;50.208;18.988;2023-06-24T00:29:37;1.70;;;1.60;;
20348;SDS011;10332;50.208;18.988;2023-06-24T00:32:05;1.88;;;1.77;;
20348;SDS011;10332;50.208;18.988;2023-06-24T00:34:33;1.60;;;1.50;;
20348;SDS011;10332;50.208;18.988;2023-06-24T00:37:01;2.13;;;1.90;;
20348;SDS011;10332;50.208;18.988;2023-06-24T00:39:29;1.73;;;1.63;;
20348;SDS011;10332;50.208;18.988;2023-06-24T00:41:57;1.83;;;1.73;;
20348;SDS011;10332;50.208;18.988;2023-06-24T00:44:24;2.00;;;1.80;;
20348;SDS011;10332;50.208;18.988;2023-06-24T00:46:53;2.25;;;2.05;;
20348;SDS011;10332;50.208;18.988;2023-06-24T00:49:21;1.95;;;1.83;;
20348;SDS011;10332;50.208;18.988;2023-06-24T00:51:48;3.30;;;2.10;;
20348;SDS011;10332;50.208;18.988;2023-06-24T00:54:17;2.50;;;1.98;;
20348;SDS011;10332;50.208;18.988;2023-06-24T00:56:45;2.05;;;1.80;;
20348;SDS011;10332;50.208;18.988;2023-06-24T00:59:13;2.13;;;1.90;;
20348;SDS011;10332;50.208;18.988;2023-06-24T01:01:43;2.50;;;2.05;;
20348;SDS011;10332;50.208;18.988;2023-06-24T01:04:13;3.75;;;2.17;;
20348;SDS011;10332;50.208;18.988;2023-06-24T01:06:40;3.17;;;2.00;;
20348;SDS011;10332;50.208;18.988;2023-06-24T01:09:10;4.28;;;1.90;;
20348;SDS011;10332;50.208;18.988;2023-06-24T01:11:39;3.47;;;2.00;;
20348;SDS011;10332;50.208;18.988;2023-06-24T01:14:07;2.20;;;2.00;;
20348;SDS011;10332;50.208;18.988;2023-06-24T01:33:38;2.28;;;2.08;;
20348;SDS011;10332;50.208;18.988;2023-06-24T01:36:12;4.18;;;1.98;;
20348;SDS011;10332;50.208;18.988;2023-06-24T01:38:47;2.50;;;2.30;;
20348;SDS011;10332;50.208;18.988;2023-06-24T01:41:22;2.45;;;2.05;;
20348;SDS011;10332;50.208;18.988;2023-06-24T01:43:57;2.40;;;1.90;;
20348;SDS011;10332;50.208;18.988;2023-06-24T01:46:26;2.45;;;1.98;;
20348;SDS011;10332;50.208;18.988;2023-06-24T01:48:58;4.00;;;2.33;;
20348;SDS011;10332;50.208;18.988;2023-06-24T01:51:31;1.95;;;1.80;;
20348;SDS011;10332;50.208;18.988;2023-06-24T01:54:04;2.60;;;2.35;;
20348;SDS011;10332;50.208;18.988;2023-06-24T01:56:40;4.53;;;2.22;;
20348;SDS011;10332;50.208;18.988;2023-06-24T01:59:11;1.90;;;1.80;;
20348;SDS011;10332;50.208;18.988;2023-06-24T02:01:42;2.00;;;1.80;;
20348;SDS011;10332;50.208;18.988;2023-06-24T02:04:11;4.00;;;2.65;;
20348;SDS011;10332;50.208;18.988;2023-06-24T02:06:41;2.50;;;2.13;;
20348;SDS011;10332;50.208;18.988;2023-06-24T02:09:11;2.20;;;2.00;;
20348;SDS011;10332;50.208;18.988;2023-06-24T02:11:39;4.25;;;2.60;;
20348;SDS011;10332;50.208;18.988;2023-06-24T02:14:08;4.38;;;2.47;;
20348;SDS011;10332;50.208;18.988;2023-06-24T02:16:38;4.50;;;2.38;;
20348;SDS011;10332;50.208;18.988;2023-06-24T02:19:10;3.55;;;2.38;;
20348;SDS011;10332;50.208;18.988;2023-06-24T02:21:39;4.53;;;2.50;;
20348;SDS011;10332;50.208;18.988;2023-06-24T02:24:08;3.30;;;2.70;;
20348;SDS011;10332;50.208;18.988;2023-06-24T02:26:37;2.40;;;2.20;;
20348;SDS011;10332;50.208;18.988;2023-06-24T02:29:10;2.50;;;2.30;;
20348;SDS011;10332;50.208;18.988;2023-06-24T02:31:40;3.28;;;2.70;;
20348;SDS011;10332;50.208;18.988;2023-06-24T02:34:08;2.40;;;2.20;;
20348;SDS011;10332;50.208;18.988;2023-06-24T02:36:36;3.75;;;2.47;;
20348;SDS011;10332;50.208;18.988;2023-06-24T02:39:03;2.70;;;2.50;;
20348;SDS011;10332;50.208;18.988;2023-06-24T02:41:31;4.25;;;2.83;;
20348;SDS011;10332;50.208;18.988;2023-06-24T02:43:58;2.75;;;2.10;;
20348;SDS011;10332;50.208;18.988;2023-06-24T02:46:26;3.80;;;3.00;;
20348;SDS011;10332;50.208;18.988;2023-06-24T02:48:57;2.85;;;2.55;;
20348;SDS011;10332;50.208;18.988;2023-06-24T02:51:25;3.88;;;3.08;;
20348;SDS011;10332;50.208;18.988;2023-06-24T02:53:54;4.38;;;2.60;;
20348;SDS011;10332;50.208;18.988;2023-06-24T02:56:25;4.07;;;2.42;;
20348;SDS011;10332;50.208;18.988;2023-06-24T02:58:54;3.00;;;2.70;;
20348;SDS011;10332;50.208;18.988;2023-06-24T03:01:22;2.85;;;2.40;;
20348;SDS011;10332;50.208;18.988;2023-06-24T03:03:53;2.53;;;2.33;;
20348;SDS011;10332;50.208;18.988;2023-06-24T03:06:22;3.42;;;2.72;;
20348;SDS011;10332;50.208;18.988;2023-06-24T03:08:51;4.78;;;2.78;;
20348;SDS011;10332;50.208;18.988;2023-06-24T03:11:19;3.22;;;2.92;;
20348;SDS011;10332;50.208;18.988;2023-06-24T03:13:47;3.75;;;2.78;;
20348;SDS011;10332;50.208;18.988;2023-06-24T03:16:14;3.03;;;2.72;;
20348;SDS011;10332;50.208;18.988;2023-06-24T03:18:42;4.18;;;3.10;;
20348;SDS011;10332;50.208;18.988;2023-06-24T03:21:10;3.05;;;2.60;;
20348;SDS011;10332;50.208;18.988;2023-06-24T03:23:38;5.60;;;3.00;;
20348;SDS011;10332;50.208;18.988;2023-06-24T03:26:06;4.22;;;2.88;;
20348;SDS011;10332;50.208;18.988;2023-06-24T03:28:36;3.35;;;2.97;;
20348;SDS011;10332;50.208;18.988;2023-06-24T03:31:05;3.92;;;3.05;;
20348;SDS011;10332;50.208;18.988;2023-06-24T03:33:32;5.18;;;3.03;;
20348;SDS011;10332;50.208;18.988;2023-06-24T03:36:00;5.28;;;3.35;;
20348;SDS011;10332;50.208;18.988;2023-06-24T03:38:27;4.60;;;3.35;;
20348;SDS011;10332;50.208;18.988;2023-06-24T03:40:55;5.07;;;3.33;;
20348;SDS011;10332;50.208;18.988;2023-06-24T03:43:22;4.10;;;3.53;;
20348;SDS011;10332;50.208;18.988;2023-06-24T03:45:50;5.22;;;3.45;;
20348;SDS011;10332;50.208;18.988;2023-06-24T03:48:17;5.38;;;3.88;;
20348;SDS011;10332;50.208;18.988;2023-06-24T03:50:45;4.85;;;3.78;;
20348;SDS011;10332;50.208;18.988;2023-06-24T03:53:12;6.65;;;4.10;;
20348;SDS011;10332;50.208;18.988;2023-06-24T03:55:40;8.98;;;4.40;;
20348;SDS011;10332;50.208;18.988;2023-06-24T03:58:07;4.60;;;3.95;;
20348;SDS011;10332;50.208;18.988;2023-06-24T04:00:35;4.88;;;3.97;;
20348;SDS011;10332;50.208;18.988;2023-06-24T04:03:07;7.07;;;4.40;;
20348;SDS011;10332;50.208;18.988;2023-06-24T04:05:34;6.57;;;4.20;;
20348;SDS011;10332;50.208;18.988;2023-06-24T04:08:02;6.90;;;4.30;;
20348;SDS011;10332;50.208;18.988;2023-06-24T04:10:32;5.95;;;4.68;;
20348;SDS011;10332;50.208;18.988;2023-06-24T04:13:00;8.95;;;4.75;;
20348;SDS011;10332;50.208;18.988;2023-06-24T04:15:27;5.82;;;4.68;;
20348;SDS011;10332;50.208;18.988;2023-06-24T04:17:55;6.68;;;5.07;;
20348;SDS011;10332;50.208;18.988;2023-06-24T04:20:22;7.40;;;4.40;;
20348;SDS011;10332;50.208;18.988;2023-06-24T04:22:50;6.10;;;4.35;;
20348;SDS011;10332;50.208;18.988;2023-06-24T04:25:18;5.72;;;4.47;;
20348;SDS011;10332;50.208;18.988;2023-06-24T04:27:45;5.25;;;4.22;;
20348;SDS011;10332;50.208;18.988;2023-06-24T04:30:13;5.80;;;4.35;;
20348;SDS011;10332;50.208;18.988;2023-06-24T04:32:41;6.38;;;5.20;;
20348;SDS011;10332;50.208;18.988;2023-06-24T04:35:09;5.47;;;4.53;;
20348;SDS011;10332;50.208;18.988;2023-06-24T04:37:36;6.38;;;5.20;;
20348;SDS011;10332;50.208;18.988;2023-06-24T04:40:04;9.82;;;6.82;;
20348;SDS011;10332;50.208;18.988;2023-06-24T04:42:32;11.60;;;7.20;;
20348;SDS011;10332;50.208;18.988;2023-06-24T04:45:00;8.80;;;6.50;;
20348;SDS011;10332;50.208;18.988;2023-06-24T04:47:29;9.07;;;7.22;;
20348;SDS011;10332;50.208;18.988;2023-06-24T04:49:56;13.10;;;8.30;;
20348;SDS011;10332;50.208;18.988;2023-06-24T04:52:24;15.40;;;8.98;;
20348;SDS011;10332;50.208;18.988;2023-06-24T04:54:51;16.85;;;9.73;;
20348;SDS011;10332;50.208;18.988;2023-06-24T04:57:29;16.05;;;10.05;;
20348;SDS011;10332;50.208;18.988;2023-06-24T04:59:58;18.48;;;12.38;;
20348;SDS011;10332;50.208;18.988;2023-06-24T05:02:25;20.20;;;14.32;;
20348;SDS011;10332;50.208;18.988;2023-06-24T05:04:53;20.75;;;13.98;;
20348;SDS011;10332;50.208;18.988;2023-06-24T05:07:21;22.52;;;14.35;;
20348;SDS011;10332;50.208;18.988;2023-06-24T05:09:49;18.88;;;13.85;;
20348;SDS011;10332;50.208;18.988;2023-06-24T05:12:18;17.67;;;12.75;;
20348;SDS011;10332;50.208;18.988;2023-06-24T05:14:49;18.30;;;13.70;;
20348;SDS011;10332;50.208;18.988;2023-06-24T05:17:21;17.60;;;13.02;;
20348;SDS011;10332;50.208;18.988;2023-06-24T05:19:48;16.30;;;12.55;;
20348;SDS011;10332;50.208;18.988;2023-06-24T05:22:16;16.38;;;12.43;;
20348;SDS011;10332;50.208;18.988;2023-06-24T05:24:43;17.70;;;12.70;;
20348;SDS011;10332;50.208;18.988;2023-06-24T05:27:11;13.38;;;10.52;;
20348;SDS011;10332;50.208;18.988;2023-06-24T05:29:39;13.85;;;10.98;;
20348;SDS011;10332;50.208;18.988;2023-06-24T05:32:06;13.98;;;10.13;;
20348;SDS011;10332;50.208;18.988;2023-06-24T05:34:34;16.15;;;11.70;;
20348;SDS011;10332;50.208;18.988;2023-06-24T05:37:01;14.25;;;11.75;;
20348;SDS011;10332;50.208;18.988;2023-06-24T05:39:30;12.90;;;9.75;;
20348;SDS011;10332;50.208;18.988;2023-06-24T05:41:58;11.35;;;8.35;;
20348;SDS011;10332;50.208;18.988;2023-06-24T05:44:26;9.23;;;7.85;;
20348;SDS011;10332;50.208;18.988;2023-06-24T05:46:53;11.40;;;8.73;;
20348;SDS011;10332;50.208;18.988;2023-06-24T05:49:20;13.23;;;9.48;;
20348;SDS011;10332;50.208;18.988;2023-06-24T05:51:48;10.60;;;8.43;;
20348;SDS011;10332;50.208;18.988;2023-06-24T05:54:16;12.57;;;9.45;;
20348;SDS011;10332;50.208;18.988;2023-06-24T05:56:43;12.32;;;8.80;;
20348;SDS011;10332;50.208;18.988;2023-06-24T05:59:11;11.68;;;9.23;;
20348;SDS011;10332;50.208;18.988;2023-06-24T06:01:38;11.32;;;8.60;;
20348;SDS011;10332;50.208;18.988;2023-06-24T06:04:06;11.48;;;8.60;;
20348;SDS011;10332;50.208;18.988;2023-06-24T06:06:33;11.73;;;8.75;;
20348;SDS011;10332;50.208;18.988;2023-06-24T06:09:01;12.02;;;8.05;;
20348;SDS011;10332;50.208;18.988;2023-06-24T06:11:29;11.23;;;7.70;;
20348;SDS011;10332;50.208;18.988;2023-06-24T06:13:56;10.23;;;7.95;;
20348;SDS011;10332;50.208;18.988;2023-06-24T06:16:24;10.30;;;7.43;;
20348;SDS011;10332;50.208;18.988;2023-06-24T06:18:52;8.48;;;6.60;;
20348;SDS011;10332;50.208;18.988;2023-06-24T06:21:19;10.50;;;8.18;;
20348;SDS011;10332;50.208;18.988;2023-06-24T06:23:48;9.63;;;7.95;;
20348;SDS011;10332;50.208;18.988;2023-06-24T06:26:15;14.82;;;9.50;;
20348;SDS011;10332;50.208;18.988;2023-06-24T06:28:43;9.27;;;7.70;;
20348;SDS011;10332;50.208;18.988;2023-06-24T06:31:10;13.18;;;8.77;;
20348;SDS011;10332;50.208;18.988;2023-06-24T06:33:38;10.70;;;7.75;;
20348;SDS011;10332;50.208;18.988;2023-06-24T06:36:05;11.55;;;9.05;;
20348;SDS011;10332;50.208;18.988;2023-06-24T06:38:33;10.52;;;7.53;;
20348;SDS011;10332;50.208;18.988;2023-06-24T06:41:01;11.18;;;8.35;;
20348;SDS011;10332;50.208;18.988;2023-06-24T06:43:28;9.07;;;7.75;;
20348;SDS011;10332;50.208;18.988;2023-06-24T06:45:56;9.02;;;7.03;;
20348;SDS011;10332;50.208;18.988;2023-06-24T06:48:23;10.55;;;7.38;;
20348;SDS011;10332;50.208;18.988;2023-06-24T06:50:50;9.98;;;6.25;;
20348;SDS011;10332;50.208;18.988;2023-06-24T06:53:19;7.18;;;6.35;;
20348;SDS011;10332;50.208;18.988;2023-06-24T06:55:47;7.32;;;6.05;;
20348;SDS011;10332;50.208;18.988;2023-06-24T06:58:14;8.70;;;6.82;;
20348;SDS011;10332;50.208;18.988;2023-06-24T07:00:42;5.38;;;4.75;;
20348;SDS011;10332;50.208;18.988;2023-06-24T07:03:09;8.13;;;6.55;;
20348;SDS011;10332;50.208;18.988;2023-06-24T07:05:37;7.90;;;5.95;;
20348;SDS011;10332;50.208;18.988;2023-06-24T07:08:05;10.90;;;7.82;;
20348;SDS011;10332;50.208;18.988;2023-06-24T07:10:33;8.73;;;6.38;;
20348;SDS011;10332;50.208;18.988;2023-06-24T07:13:00;9.55;;;6.57;;
20348;SDS011;10332;50.208;18.988;2023-06-24T07:15:28;11.52;;;7.97;;
20348;SDS011;10332;50.208;18.988;2023-06-24T07:17:55;9.68;;;7.40;;
20348;SDS011;10332;50.208;18.988;2023-06-24T07:20:24;9.57;;;7.32;;
20348;SDS011;10332;50.208;18.988;2023-06-24T07:22:51;11.15;;;7.32;;
20348;SDS011;10332;50.208;18.988;2023-06-24T07:25:19;8.30;;;6.30;;
20348;SDS011;10332;50.208;18.988;2023-06-24T07:27:46;9.50;;;6.65;;
20348;SDS011;10332;50.208;18.988;2023-06-24T07:30:14;9.15;;;6.55;;
20348;SDS011;10332;50.208;18.988;2023-06-24T07:32:41;9.13;;;6.00;;
20348;SDS011;10332;50.208;18.988;2023-06-24T07:35:09;6.78;;;5.10;;
20348;SDS011;10332;50.208;18.988;2023-06-24T07:37:37;7.20;;;5.85;;
20348;SDS011;10332;50.208;18.988;2023-06-24T07:40:06;7.05;;;5.40;;
20348;SDS011;10332;50.208;18.988;2023-06-24T07:42:34;7.47;;;5.78;;
20348;SDS011;10332;50.208;18.988;2023-06-24T07:45:02;4.95;;;4.38;;
20348;SDS011;10332;50.208;18.988;2023-06-24T07:47:31;7.72;;;5.53;;
20348;SDS011;10332;50.208;18.988;2023-06-24T07:49:58;8.00;;;5.57;;
20348;SDS011;10332;50.208;18.988;2023-06-24T07:52:26;6.43;;;4.53;;
20348;SDS011;10332;50.208;18.988;2023-06-24T07:54:53;5.43;;;4.60;;
20348;SDS011;10332;50.208;18.988;2023-06-24T07:57:21;7.78;;;5.40;;
20348;SDS011;10332;50.208;18.988;2023-06-24T07:59:48;6.75;;;4.80;;
20348;SDS011;10332;50.208;18.988;2023-06-24T08:02:16;6.03;;;4.43;;
20348;SDS011;10332;50.208;18.988;2023-06-24T08:04:43;5.80;;;5.20;;
20348;SDS011;10332;50.208;18.988;2023-06-24T08:07:11;5.90;;;5.10;;
20348;SDS011;10332;50.208;18.988;2023-06-24T08:09:39;7.60;;;5.55;;
20348;SDS011;10332;50.208;18.988;2023-06-24T08:12:08;6.18;;;4.20;;
20348;SDS011;10332;50.208;18.988;2023-06-24T08:14:36;4.88;;;4.28;;
20348;SDS011;10332;50.208;18.988;2023-06-24T08:17:08;6.85;;;4.90;;
20348;SDS011;10332;50.208;18.988;2023-06-24T08:19:36;6.55;;;4.80;;
20348;SDS011;10332;50.208;18.988;2023-06-24T08:22:03;6.05;;;4.38;;
20348;SDS011;10332;50.208;18.988;2023-06-24T08:24:31;8.18;;;4.97;;
20348;SDS011;10332;50.208;18.988;2023-06-24T08:26:58;7.70;;;5.85;;
20348;SDS011;10332;50.208;18.988;2023-06-24T08:29:26;8.80;;;5.57;;
20348;SDS011;10332;50.208;18.988;2023-06-24T08:31:53;9.05;;;6.53;;
20348;SDS011;10332;50.208;18.988;2023-06-24T08:34:22;9.38;;;6.90;;
20348;SDS011;10332;50.208;18.988;2023-06-24T08:36:52;7.47;;;5.68;;
20348;SDS011;10332;50.208;18.988;2023-06-24T08:39:20;8.07;;;6.05;;
20348;SDS011;10332;50.208;18.988;2023-06-24T08:41:47;8.02;;;5.97;;
20348;SDS011;10332;50.208;18.988;2023-06-24T08:44:14;6.50;;;5.28;;
20348;SDS011;10332;50.208;18.988;2023-06-24T08:46:42;8.07;;;6.03;;
20348;SDS011;10332;50.208;18.988;2023-06-24T08:49:20;9.07;;;5.70;;
20348;SDS011;10332;50.208;18.988;2023-06-24T08:52:13;6.97;;;5.65;;
20348;SDS011;10332;50.208;18.988;2023-06-24T08:54:46;6.35;;;5.00;;
20348;SDS011;10332;50.208;18.988;2023-06-24T08:57:16;7.13;;;5.65;;
20348;SDS011;10332;50.208;18.988;2023-06-24T08:59:45;5.97;;;5.00;;
20348;SDS011;10332;50.208;18.988;2023-06-24T09:02:12;8.20;;;6.07;;
20348;SDS011;10332;50.208;18.988;2023-06-24T09:04:41;8.43;;;6.35;;
20348;SDS011;10332;50.208;18.988;2023-06-24T09:07:08;7.53;;;4.95;;
20348;SDS011;10332;50.208;18.988;2023-06-24T09:09:42;6.63;;;5.15;;
20348;SDS011;10332;50.208;18.988;2023-06-24T09:12:12;7.75;;;4.68;;
20348;SDS011;10332;50.208;18.988;2023-06-24T09:14:42;9.60;;;5.60;;
20348;SDS011;10332;50.208;18.988;2023-06-24T09:17:15;7.82;;;5.57;;
20348;SDS011;10332;50.208;18.988;2023-06-24T09:19:44;8.10;;;5.88;;
20348;SDS011;10332;50.208;18.988;2023-06-24T09:22:12;6.50;;;5.18;;
20348;SDS011;10332;50.208;18.988;2023-06-24T09:24:44;6.13;;;4.72;;
20348;SDS011;10332;50.208;18.988;2023-06-24T09:27:15;6.15;;;4.60;;
20348;SDS011;10332;50.208;18.988;2023-06-24T09:29:47;6.28;;;4.63;;
20348;SDS011;10332;50.208;18.988;2023-06-24T09:32:14;4.93;;;4.10;;
20348;SDS011;10332;50.208;18.988;2023-06-24T09:34:47;7.43;;;4.72;;
20348;SDS011;10332;50.208;18.988;2023-06-24T09:37:21;4.65;;;3.97;;
20348;SDS011;10332;50.208;18.988;2023-06-24T09:39:57;5.40;;;4.22;;
20348;SDS011;10332;50.208;18.988;2023-06-24T09:42:25;6.68;;;4.68;;
20348;SDS011;10332;50.208;18.988;2023-06-24T09:44:56;5.50;;;4.40;;
20348;SDS011;10332;50.208;18.988;2023-06-24T09:47:23;6.55;;;5.13;;
20348;SDS011;10332;50.208;18.988;2023-06-24T09:49:53;5.63;;;4.55;;
20348;SDS011;10332;50.208;18.988;2023-06-24T09:52:21;4.00;;;3.50;;
20348;SDS011;10332;50.208;18.988;2023-06-24T09:54:51;10.82;;;5.10;;
20348;SDS011;10332;50.208;18.988;2023-06-24T09:57:23;4.68;;;3.97;;
20348;SDS011;10332;50.208;18.988;2023-06-24T09:59:56;8.80;;;4.90;;
20348;SDS011;10332;50.208;18.988;2023-06-24T10:02:25;6.80;;;4.78;;
20348;SDS011;10332;50.208;18.988;2023-06-24T10:04:53;7.18;;;4.97;;
20348;SDS011;10332;50.208;18.988;2023-06-24T10:07:21;6.05;;;5.20;;
20348;SDS011;10332;50.208;18.988;2023-06-24T10:09:49;8.35;;;6.40;;
20348;SDS011;10332;50.208;18.988;2023-06-24T10:12:17;6.03;;;5.32;;
20348;SDS011;10332;50.208;18.988;2023-06-24T10:14:45;7.15;;;6.13;;
20348;SDS011;10332;50.208;18.988;2023-06-24T10:17:13;6.50;;;5.70;;
20348;SDS011;10332;50.208;18.988;2023-06-24T10:19:41;8.32;;;5.70;;
20348;SDS011;10332;50.208;18.988;2023-06-24T10:22:09;7.15;;;5.85;;
20348;SDS011;10332;50.208;18.988;2023-06-24T10:24:38;7.43;;;6.05;;
20348;SDS011;10332;50.208;18.988;2023-06-24T10:27:15;7.15;;;6.05;;
20348;SDS011;10332;50.208;18.988;2023-06-24T10:29:48;7.15;;;6.13;;
20348;SDS011;10332;50.208;18.988;2023-06-24T10:32:17;6.75;;;5.75;;
20348;SDS011;10332;50.208;18.988;2023-06-24T10:34:54;7.15;;;6.07;;
20348;SDS011;10332;50.208;18.988;2023-06-24T10:37:24;8.07;;;6.35;;
20348;SDS011;10332;50.208;18.988;2023-06-24T10:39:56;6.45;;;5.40;;
20348;SDS011;10332;50.208;18.988;2023-06-24T10:44:59;6.93;;;5.70;;
20348;SDS011;10332;50.208;18.988;2023-06-24T10:47:41;6.18;;;5.53;;
20348;SDS011;10332;50.208;18.988;2023-06-24T10:50:26;8.40;;;6.35;;
20348;SDS011;10332;50.208;18.988;2023-06-24T10:52:54;5.05;;;4.55;;
20348;SDS011;10332;50.208;18.988;2023-06-24T10:55:24;8.05;;;5.53;;
20348;SDS011;10332;50.208;18.988;2023-06-24T10:57:52;7.78;;;5.63;;
20348;SDS011;10332;50.208;18.988;2023-06-24T11:00:21;5.95;;;5.35;;
20348;SDS011;10332;50.208;18.988;2023-06-24T11:02:49;7.53;;;6.55;;
20348;SDS011;10332;50.208;18.988;2023-06-24T11:05:17;8.52;;;6.30;;
20348;SDS011;10332;50.208;18.988;2023-06-24T11:07:44;6.72;;;5.85;;
20348;SDS011;10332;50.208;18.988;2023-06-24T11:10:13;7.85;;;6.50;;
20348;SDS011;10332;50.208;18.988;2023-06-24T11:12:42;8.40;;;5.95;;
20348;SDS011;10332;50.208;18.988;2023-06-24T11:15:11;6.22;;;5.55;;
20348;SDS011;10332;50.208;18.988;2023-06-24T11:17:40;6.13;;;5.53;;
20348;SDS011;10332;50.208;18.988;2023-06-24T11:20:16;6.75;;;5.10;;
20348;SDS011;10332;50.208;18.988;2023-06-24T11:22:44;8.52;;;5.78;;
20348;SDS011;10332;50.208;18.988;2023-06-24T11:25:15;8.15;;;5.97;;
20348;SDS011;10332;50.208;18.988;2023-06-24T11:27:44;8.30;;;6.10;;
20348;SDS011;10332;50.208;18.988;2023-06-24T11:30:13;7.75;;;6.28;;
20348;SDS011;10332;50.208;18.988;2023-06-24T11:32:41;5.82;;;5.22;;
20348;SDS011;10332;50.208;18.988;2023-06-24T11:35:11;7.28;;;6.45;;
20348;SDS011;10332;50.208;18.988;2023-06-24T11:37:45;6.97;;;5.82;;
20348;SDS011;10332;50.208;18.988;2023-06-24T11:40:16;6.78;;;5.40;;
20348;SDS011;10332;50.208;18.988;2023-06-24T11:42:46;5.38;;;4.72;;
20348;SDS011;10332;50.208;18.988;2023-06-24T11:45:20;7.60;;;5.45;;
20348;SDS011;10332;50.208;18.988;2023-06-24T11:47:49;5.78;;;5.18;;
20348;SDS011;10332;50.208;18.988;2023-06-24T11:50:17;6.57;;;5.20;;
20348;SDS011;10332;50.208;18.988;2023-06-24T11:52:46;6.95;;;5.43;;
20348;SDS011;10332;50.208;18.988;2023-06-24T11:55:19;5.40;;;4.68;;
20348;SDS011;10332;50.208;18.988;2023-06-24T12:00:43;8.02;;;6.22;;
20348;SDS011;10332;50.208;18.988;2023-06-24T12:03:13;8.20;;;6.32;;
20348;SDS011;10332;50.208;18.988;2023-06-24T12:05:42;6.18;;;5.18;;
20348;SDS011;10332;50.208;18.988;2023-06-24T12:08:14;8.15;;;6.03;;
20348;SDS011;10332;50.208;18.988;2023-06-24T12:10:43;7.95;;;6.18;;
20348;SDS011;10332;50.208;18.988;2023-06-24T12:13:11;7.47;;;5.45;;
20348;SDS011;10332;50.208;18.988;2023-06-24T12:15:40;7.43;;;4.93;;
20348;SDS011;10332;50.208;18.988;2023-06-24T12:18:08;8.15;;;5.65;;
20348;SDS011;10332;50.208;18.988;2023-06-24T12:20:36;5.70;;;4.97;;
20348;SDS011;10332;50.208;18.988;2023-06-24T12:23:05;7.00;;;5.22;;
20348;SDS011;10332;50.208;18.988;2023-06-24T12:25:33;6.88;;;4.95;;
20348;SDS011;10332;50.208;18.988;2023-06-24T12:28:01;7.85;;;5.32;;
20348;SDS011;10332;50.208;18.988;2023-06-24T12:30:29;6.70;;;5.15;;
20348;SDS011;10332;50.208;18.988;2023-06-24T12:32:56;5.75;;;5.05;;
20348;SDS011;10332;50.208;18.988;2023-06-24T12:35:24;7.53;;;5.50;;
20348;SDS011;10332;50.208;18.988;2023-06-24T12:37:53;7.35;;;4.82;;
20348;SDS011;10332;50.208;18.988;2023-06-24T12:40:21;6.45;;;5.35;;
20348;SDS011;10332;50.208;18.988;2023-06-24T12:42:48;5.97;;;4.70;;
20348;SDS011;10332;50.208;18.988;2023-06-24T12:45:16;7.45;;;5.20;;
20348;SDS011;10332;50.208;18.988;2023-06-24T12:47:43;6.22;;;5.00;;
20348;SDS011;10332;50.208;18.988;2023-06-24T12:50:11;8.50;;;5.68;;
20348;SDS011;10332;50.208;18.988;2023-06-24T12:52:38;6.20;;;5.03;;
20348;SDS011;10332;50.208;18.988;2023-06-24T12:55:06;7.00;;;5.10;;
20348;SDS011;10332;50.208;18.988;2023-06-24T12:57:34;8.23;;;5.85;;
20348;SDS011;10332;50.208;18.988;2023-06-24T13:00:03;6.50;;;5.18;;
20348;SDS011;10332;50.208;18.988;2023-06-24T13:02:33;7.45;;;6.20;;
20348;SDS011;10332;50.208;18.988;2023-06-24T13:05:02;7.03;;;5.43;;
20348;SDS011;10332;50.208;18.988;2023-06-24T13:07:30;8.35;;;5.32;;
20348;SDS011;10332;50.208;18.988;2023-06-24T13:09:59;8.32;;;5.30;;
20348;SDS011;10332;50.208;18.988;2023-06-24T13:12:28;6.40;;;4.70;;
20348;SDS011;10332;50.208;18.988;2023-06-24T13:14:56;7.25;;;4.82;;
20348;SDS011;10332;50.208;18.988;2023-06-24T13:17:23;4.78;;;4.05;;
20348;SDS011;10332;50.208;18.988;2023-06-24T13:19:51;5.57;;;4.65;;
20348;SDS011;10332;50.208;18.988;2023-06-24T13:22:19;6.13;;;5.18;;
20348;SDS011;10332;50.208;18.988;2023-06-24T13:24:47;6.80;;;5.05;;
20348;SDS011;10332;50.208;18.988;2023-06-24T13:27:14;5.78;;;4.60;;
20348;SDS011;10332;50.208;18.988;2023-06-24T13:29:43;7.18;;;5.13;;
20348;SDS011;10332;50.208;18.988;2023-06-24T13:32:11;5.72;;;4.45;;
20348;SDS011;10332;50.208;18.988;2023-06-24T13:34:38;5.47;;;4.53;;
20348;SDS011;10332;50.208;18.988;2023-06-24T13:37:06;8.68;;;6.10;;
20348;SDS011;10332;50.208;18.988;2023-06-24T13:39:34;6.00;;;4.88;;
20348;SDS011;10332;50.208;18.988;2023-06-24T13:42:01;9.15;;;5.47;;
20348;SDS011;10332;50.208;18.988;2023-06-24T13:44:29;6.57;;;4.28;;
20348;SDS011;10332;50.208;18.988;2023-06-24T13:46:56;5.03;;;4.30;;
20348;SDS011;10332;50.208;18.988;2023-06-24T13:49:24;5.40;;;4.35;;
20348;SDS011;10332;50.208;18.988;2023-06-24T13:51:52;6.47;;;4.53;;
20348;SDS011;10332;50.208;18.988;2023-06-24T13:54:19;5.65;;;4.30;;
20348;SDS011;10332;50.208;18.988;2023-06-24T13:56:47;5.13;;;3.78;;
20348;SDS011;10332;50.208;18.988;2023-06-24T13:59:15;4.82;;;3.42;;
20348;SDS011;10332;50.208;18.988;2023-06-24T14:01:42;6.93;;;4.57;;
20348;SDS011;10332;50.208;18.988;2023-06-24T14:04:11;4.60;;;3.90;;
20348;SDS011;10332;50.208;18.988;2023-06-24T14:06:38;5.15;;;4.07;;
20348;SDS011;10332;50.208;18.988;2023-06-24T14:09:06;3.97;;;3.30;;
20348;SDS011;10332;50.208;18.988;2023-06-24T14:11:34;4.47;;;3.60;;
20348;SDS011;10332;50.208;18.988;2023-06-24T14:14:02;4.13;;;3.40;;
20348;SDS011;10332;50.208;18.988;2023-06-24T14:16:29;4.15;;;3.75;;
20348;SDS011;10332;50.208;18.988;2023-06-24T14:18:57;4.40;;;3.58;;
20348;SDS011;10332;50.208;18.988;2023-06-24T14:21:24;3.25;;;2.95;;
20348;SDS011;10332;50.208;18.988;2023-06-24T14:23:52;7.28;;;3.33;;
20348;SDS011;10332;50.208;18.988;2023-06-24T14:26:23;6.55;;;4.40;;
20348;SDS011;10332;50.208;18.988;2023-06-24T14:28:54;4.20;;;3.80;;
20348;SDS011;10332;50.208;18.988;2023-06-24T14:31:21;5.30;;;4.25;;
20348;SDS011;10332;50.208;18.988;2023-06-24T14:33:49;4.60;;;3.42;;
20348;SDS011;10332;50.208;18.988;2023-06-24T14:36:17;4.80;;;3.50;;
20348;SDS011;10332;50.208;18.988;2023-06-24T14:38:46;3.95;;;3.50;;
20348;SDS011;10332;50.208;18.988;2023-06-24T14:41:14;4.63;;;3.38;;
20348;SDS011;10332;50.208;18.988;2023-06-24T14:43:41;4.40;;;3.15;;
20348;SDS011;10332;50.208;18.988;2023-06-24T14:46:09;5.78;;;3.33;;
20348;SDS011;10332;50.208;18.988;2023-06-24T14:48:37;5.07;;;3.70;;
20348;SDS011;10332;50.208;18.988;2023-06-24T14:51:04;4.90;;;3.40;;
20348;SDS011;10332;50.208;18.988;2023-06-24T14:53:33;4.32;;;3.03;;
20348;SDS011;10332;50.208;18.988;2023-06-24T14:56:00;5.43;;;3.47;;
20348;SDS011;10332;50.208;18.988;2023-06-24T14:58:28;5.28;;;3.47;;
20348;SDS011;10332;50.208;18.988;2023-06-24T15:00:55;4.20;;;3.33;;
20348;SDS011;10332;50.208;18.988;2023-06-24T15:03:23;3.83;;;3.20;;
20348;SDS011;10332;50.208;18.988;2023-06-24T15:05:50;4.43;;;3.33;;